sensor_id;sensor_type;location;lat;lon;timestamp;pressure;altitude;pressure_sealevel;temperature;humidity
38616;BME280;24370;51.986;4.666;2023-04-26T00:02:24;102055.28;;;13.67;43.54
38616;BME280;24370;51.986;4.666;2023-04-26T00:04:52;102049.13;;;13.78;44.84
38616;BME280;24370;51.986;4.666;2023-04-26T00:07:23;102053.38;;;14.10;43.60
38616;BME280;24370;51.986;4.666;2023-04-26T00:09:53;102054.47;;;13.50;44.61
38616;BME280;24370;51.986;4.666;2023-04-26T00:12:18;102055.31;;;13.64;44.78
38616;BME280;24370;51.986;4.666;2023-04-26T00:14:44;102053.44;;;13.89;43.72
38616;BME280;24370;51.986;4.666;2023-04-26T00:17:10;102054.44;;;13.68;44.34
38616;BME280;24370;51.986;4.666;2023-04-26T00:19:35;102058.78;;;13.68;44.14
38616;BME280;24370;51.986;4.666;2023-04-26T00:22:01;102045.59;;;13.85;43.56
38616;BME280;24370;51.986;4.666;2023-04-26T00:24:27;102049.16;;;13.65;44.62
38616;BME280;24370;51.986;4.666;2023-04-26T00:26:53;102044.78;;;13.67;44.38
38616;BME280;24370;51.986;4.666;2023-04-26T00:29:19;102049.22;;;13.47;44.41
38616;BME280;24370;51.986;4.666;2023-04-26T00:31:45;102046.59;;;13.34;44.06
38616;BME280;24370;51.986;4.666;2023-04-26T00:34:10;102051.00;;;13.04;44.31
38616;BME280;24370;51.986;4.666;2023-04-26T00:36:35;102047.50;;;13.30;44.51
38616;BME280;24370;51.986;4.666;2023-04-26T00:39:01;102047.50;;;13.18;44.56
38616;BME280;24370;51.986;4.666;2023-04-26T00:41:26;102048.38;;;13.07;44.90
38616;BME280;24370;51.986;4.666;2023-04-26T00:43:52;102051.84;;;13.28;45.25
38616;BME280;24370;51.986;4.666;2023-04-26T00:46:17;102050.16;;;13.15;45.65
38616;BME280;24370;51.986;4.666;2023-04-26T00:48:43;102046.66;;;13.06;45.19
38616;BME280;24370;51.986;4.666;2023-04-26T00:51:08;102049.25;;;13.13;45.07
38616;BME280;24370;51.986;4.666;2023-04-26T00:53:34;102047.50;;;13.13;44.63
38616;BME280;24370;51.986;4.666;2023-04-26T00:55:59;102049.28;;;13.06;45.33
38616;BME280;24370;51.986;4.666;2023-04-26T00:58:26;102043.06;;;13.60;44.00
38616;BME280;24370;51.986;4.666;2023-04-26T01:00:51;102050.13;;;13.27;44.01
38616;BME280;24370;51.986;4.666;2023-04-26T01:03:17;102042.25;;;12.88;44.83
38616;BME280;24370;51.986;4.666;2023-04-26T01:05:43;102037.03;;;12.90;44.75
38616;BME280;24370;51.986;4.666;2023-04-26T01:08:09;102043.16;;;13.11;44.33
38616;BME280;24370;51.986;4.666;2023-04-26T01:10:35;102035.22;;;13.42;43.92
38616;BME280;24370;51.986;4.666;2023-04-26T01:13:01;102041.34;;;13.39;43.92
38616;BME280;24370;51.986;4.666;2023-04-26T01:15:30;102040.50;;;13.38;44.35
38616;BME280;24370;51.986;4.666;2023-04-26T01:17:57;102049.28;;;13.00;45.12
38616;BME280;24370;51.986;4.666;2023-04-26T01:20:23;102030.91;;;12.83;45.02
38616;BME280;24370;51.986;4.666;2023-04-26T01:22:50;102045.78;;;12.83;45.41
38616;BME280;24370;51.986;4.666;2023-04-26T01:25:16;102051.03;;;12.67;44.96
38616;BME280;24370;51.986;4.666;2023-04-26T01:27:42;102048.38;;;12.52;45.85
38616;BME280;24370;51.986;4.666;2023-04-26T01:30:08;102049.25;;;12.35;47.75
38616;BME280;24370;51.986;4.666;2023-04-26T01:32:34;102051.84;;;12.20;46.33
38616;BME280;24370;51.986;4.666;2023-04-26T01:34:59;102049.28;;;12.57;45.94
38616;BME280;24370;51.986;4.666;2023-04-26T01:37:25;102047.47;;;12.34;46.69
38616;BME280;24370;51.986;4.666;2023-04-26T01:39:50;102051.00;;;12.36;45.69
38616;BME280;24370;51.986;4.666;2023-04-26T01:42:16;102055.34;;;12.30;46.91
38616;BME280;24370;51.986;4.666;2023-04-26T01:44:41;102044.00;;;12.35;46.29
38616;BME280;24370;51.986;4.666;2023-04-26T01:47:07;102057.06;;;12.26;46.58
38616;BME280;24370;51.986;4.666;2023-04-26T01:49:32;102042.25;;;12.41;46.11
38616;BME280;24370;51.986;4.666;2023-04-26T01:51:58;102041.41;;;12.57;45.74
38616;BME280;24370;51.986;4.666;2023-04-26T01:54:23;102052.78;;;12.56;45.32
38616;BME280;24370;51.986;4.666;2023-04-26T01:56:49;102050.13;;;12.48;45.63
38616;BME280;24370;51.986;4.666;2023-04-26T01:59:14;102054.44;;;12.29;46.41
38616;BME280;24370;51.986;4.666;2023-04-26T02:01:41;102056.25;;;12.52;46.00
38616;BME280;24370;51.986;4.666;2023-04-26T02:04:07;102046.66;;;12.69;46.01
38616;BME280;24370;51.986;4.666;2023-04-26T02:06:33;102045.72;;;12.32;46.75
38616;BME280;24370;51.986;4.666;2023-04-26T02:08:58;102044.88;;;12.42;46.84
38616;BME280;24370;51.986;4.666;2023-04-26T02:11:24;102049.22;;;12.20;46.10
38616;BME280;24370;51.986;4.666;2023-04-26T02:13:51;102047.47;;;12.36;46.22
38616;BME280;24370;51.986;4.666;2023-04-26T02:16:16;102057.94;;;12.22;46.83
38616;BME280;24370;51.986;4.666;2023-04-26T02:18:42;102053.53;;;12.04;47.29
38616;BME280;24370;51.986;4.666;2023-04-26T02:21:10;102049.19;;;12.17;46.89
38616;BME280;24370;51.986;4.666;2023-04-26T02:23:35;102040.47;;;12.33;46.89
38616;BME280;24370;51.986;4.666;2023-04-26T02:26:01;102043.13;;;12.36;46.04
38616;BME280;24370;51.986;4.666;2023-04-26T02:28:27;102051.84;;;12.25;47.18
38616;BME280;24370;51.986;4.666;2023-04-26T02:30:52;102055.31;;;12.17;46.20
38616;BME280;24370;51.986;4.666;2023-04-26T02:33:18;102047.50;;;12.59;45.51
38616;BME280;24370;51.986;4.666;2023-04-26T02:35:43;102039.66;;;12.59;46.99
38616;BME280;24370;51.986;4.666;2023-04-26T02:38:09;102035.31;;;12.73;47.05
38616;BME280;24370;51.986;4.666;2023-04-26T02:40:34;102034.41;;;12.76;45.72
38616;BME280;24370;51.986;4.666;2023-04-26T02:43:00;102039.66;;;12.65;46.24
38616;BME280;24370;51.986;4.666;2023-04-26T02:45:25;102030.03;;;13.11;45.14
38616;BME280;24370;51.986;4.666;2023-04-26T02:47:51;102034.34;;;13.44;44.78
38616;BME280;24370;51.986;4.666;2023-04-26T02:50:16;102027.41;;;12.87;45.25
38616;BME280;24370;51.986;4.666;2023-04-26T02:52:42;102025.66;;;13.06;45.74
38616;BME280;24370;51.986;4.666;2023-04-26T02:55:07;102029.13;;;13.13;45.18
38616;BME280;24370;51.986;4.666;2023-04-26T02:57:33;102030.88;;;13.14;45.61
38616;BME280;24370;51.986;4.666;2023-04-26T02:59:59;102024.78;;;12.95;46.25
38616;BME280;24370;51.986;4.666;2023-04-26T03:02:25;102025.66;;;12.97;46.53
38616;BME280;24370;51.986;4.666;2023-04-26T03:04:50;102019.44;;;13.51;44.59
38616;BME280;24370;51.986;4.666;2023-04-26T03:07:15;102019.34;;;13.76;43.70
38616;BME280;24370;51.986;4.666;2023-04-26T03:09:41;102017.69;;;13.53;43.60
38616;BME280;24370;51.986;4.666;2023-04-26T03:12:06;102026.53;;;12.96;45.41
38616;BME280;24370;51.986;4.666;2023-04-26T03:14:33;102021.28;;;12.75;45.71
38616;BME280;24370;51.986;4.666;2023-04-26T03:16:59;102017.75;;;13.03;45.90
38616;BME280;24370;51.986;4.666;2023-04-26T03:19:24;102026.53;;;12.50;46.27
38616;BME280;24370;51.986;4.666;2023-04-26T03:21:51;102029.13;;;12.30;46.95
38616;BME280;24370;51.986;4.666;2023-04-26T03:24:16;102017.78;;;12.38;46.09
38616;BME280;24370;51.986;4.666;2023-04-26T03:26:41;102026.47;;;12.22;46.42
38616;BME280;24370;51.986;4.666;2023-04-26T03:29:07;102021.25;;;12.34;47.15
38616;BME280;24370;51.986;4.666;2023-04-26T03:31:32;102025.66;;;12.48;46.50
38616;BME280;24370;51.986;4.666;2023-04-26T03:33:58;102021.25;;;12.34;46.39
38616;BME280;24370;51.986;4.666;2023-04-26T03:36:23;102009.91;;;12.54;46.63
38616;BME280;24370;51.986;4.666;2023-04-26T03:38:48;102017.78;;;12.35;47.22
38616;BME280;24370;51.986;4.666;2023-04-26T03:41:14;102012.53;;;12.51;46.86
38616;BME280;24370;51.986;4.666;2023-04-26T03:43:39;102016.91;;;12.60;45.74
38616;BME280;24370;51.986;4.666;2023-04-26T03:46:04;102013.44;;;12.90;45.31
38616;BME280;24370;51.986;4.666;2023-04-26T03:48:30;102004.69;;;12.82;45.35
38616;BME280;24370;51.986;4.666;2023-04-26T03:50:55;102009.91;;;12.48;46.20
38616;BME280;24370;51.986;4.666;2023-04-26T03:53:20;102008.16;;;12.30;47.67
38616;BME280;24370;51.986;4.666;2023-04-26T03:55:46;102006.41;;;12.35;45.86
38616;BME280;24370;51.986;4.666;2023-04-26T03:58:12;101992.44;;;12.73;46.35
38616;BME280;24370;51.986;4.666;2023-04-26T04:00:38;102004.66;;;12.52;45.93
38616;BME280;24370;51.986;4.666;2023-04-26T04:03:05;101995.06;;;12.53;46.12
38616;BME280;24370;51.986;4.666;2023-04-26T04:05:31;101997.69;;;12.78;46.10
38616;BME280;24370;51.986;4.666;2023-04-26T04:07:56;101998.56;;;12.86;45.79
38616;BME280;24370;51.986;4.666;2023-04-26T04:10:22;102008.16;;;12.50;45.53
38616;BME280;24370;51.986;4.666;2023-04-26T04:12:48;101999.41;;;12.28;47.29
38616;BME280;24370;51.986;4.666;2023-04-26T04:15:13;101999.41;;;12.42;46.60
38616;BME280;24370;51.986;4.666;2023-04-26T04:17:39;102009.00;;;12.12;47.97
38616;BME280;24370;51.986;4.666;2023-04-26T04:20:05;102004.63;;;12.14;47.25
38616;BME280;24370;51.986;4.666;2023-04-26T04:22:31;102009.00;;;12.19;47.83
38616;BME280;24370;51.986;4.666;2023-04-26T04:24:57;102022.06;;;12.10;46.58
38616;BME280;24370;51.986;4.666;2023-04-26T04:27:23;102018.63;;;12.24;48.08
38616;BME280;24370;51.986;4.666;2023-04-26T04:29:49;102026.44;;;12.07;47.77
38616;BME280;24370;51.986;4.666;2023-04-26T04:32:14;102030.72;;;11.89;47.61
38616;BME280;24370;51.986;4.666;2023-04-26T04:34:41;102024.75;;;12.33;47.54
38616;BME280;24370;51.986;4.666;2023-04-26T04:37:07;102023.00;;;12.38;46.92
38616;BME280;24370;51.986;4.666;2023-04-26T04:39:32;102020.41;;;12.66;46.22
38616;BME280;24370;51.986;4.666;2023-04-26T04:41:58;102024.78;;;12.49;47.30
38616;BME280;24370;51.986;4.666;2023-04-26T04:44:24;102021.31;;;12.68;46.58
38616;BME280;24370;51.986;4.666;2023-04-26T04:46:51;102023.84;;;12.25;47.87
38616;BME280;24370;51.986;4.666;2023-04-26T04:49:17;102022.16;;;12.36;47.74
38616;BME280;24370;51.986;4.666;2023-04-26T04:51:43;102021.31;;;12.78;46.83
38616;BME280;24370;51.986;4.666;2023-04-26T04:54:16;102015.16;;;12.96;46.76
38616;BME280;24370;51.986;4.666;2023-04-26T04:56:42;102017.78;;;12.97;46.32
38616;BME280;24370;51.986;4.666;2023-04-26T04:59:08;102018.69;;;12.67;46.74
38616;BME280;24370;51.986;4.666;2023-04-26T05:01:34;102029.16;;;12.59;46.81
38616;BME280;24370;51.986;4.666;2023-04-26T05:04:01;102023.06;;;12.82;47.70
38616;BME280;24370;51.986;4.666;2023-04-26T05:06:27;102026.56;;;12.78;46.71
38616;BME280;24370;51.986;4.666;2023-04-26T05:08:55;102023.91;;;12.61;48.22
38616;BME280;24370;51.986;4.666;2023-04-26T05:11:20;102018.66;;;12.75;47.03
38616;BME280;24370;51.986;4.666;2023-04-26T05:13:46;102018.66;;;12.93;47.25
38616;BME280;24370;51.986;4.666;2023-04-26T05:16:11;102023.88;;;13.12;46.30
38616;BME280;24370;51.986;4.666;2023-04-26T05:18:37;102021.28;;;13.15;46.66
38616;BME280;24370;51.986;4.666;2023-04-26T05:21:02;102019.44;;;13.52;45.79
38616;BME280;24370;51.986;4.666;2023-04-26T05:23:27;102008.81;;;13.79;45.88
38616;BME280;24370;51.986;4.666;2023-04-26T05:25:53;102019.44;;;13.45;46.41
38616;BME280;24370;51.986;4.666;2023-04-26T05:28:18;102019.41;;;13.57;46.99
38616;BME280;24370;51.986;4.666;2023-04-26T05:30:45;102018.47;;;13.80;46.36
38616;BME280;24370;51.986;4.666;2023-04-26T05:33:10;102021.97;;;13.71;46.27
38616;BME280;24370;51.986;4.666;2023-04-26T05:35:36;102023.38;;;14.40;45.65
38616;BME280;24370;51.986;4.666;2023-04-26T05:38:01;102022.56;;;14.27;45.99
38616;BME280;24370;51.986;4.666;2023-04-26T05:40:26;102021.53;;;14.51;45.51
38616;BME280;24370;51.986;4.666;2023-04-26T05:42:52;102030.81;;;14.97;44.89
38616;BME280;24370;51.986;4.666;2023-04-26T05:45:17;102024.75;;;14.89;45.08
38616;BME280;24370;51.986;4.666;2023-04-26T05:47:43;102031.28;;;15.39;45.13
38616;BME280;24370;51.986;4.666;2023-04-26T05:50:08;102030.31;;;15.50;43.63
38616;BME280;24370;51.986;4.666;2023-04-26T05:52:34;102040.75;;;15.56;43.77
38616;BME280;24370;51.986;4.666;2023-04-26T05:54:59;102033.47;;;15.76;44.61
38616;BME280;24370;51.986;4.666;2023-04-26T05:57:28;102030.47;;;16.07;43.46
38616;BME280;24370;51.986;4.666;2023-04-26T05:59:54;102028.03;;;15.92;42.50
38616;BME280;24370;51.986;4.666;2023-04-26T06:02:19;102034.16;;;15.96;42.25
38616;BME280;24370;51.986;4.666;2023-04-26T06:04:44;102041.25;;;15.89;42.43
38616;BME280;24370;51.986;4.666;2023-04-26T06:07:10;102038.41;;;16.07;42.67
38616;BME280;24370;51.986;4.666;2023-04-26T06:09:36;102043.25;;;16.35;41.40
38616;BME280;24370;51.986;4.666;2023-04-26T06:12:01;102048.47;;;16.40;40.36
38616;BME280;24370;51.986;4.666;2023-04-26T06:14:28;102048.34;;;16.48;41.22
38616;BME280;24370;51.986;4.666;2023-04-26T06:16:53;102048.22;;;16.57;40.50
38616;BME280;24370;51.986;4.666;2023-04-26T06:19:18;102053.56;;;16.51;40.14
38616;BME280;24370;51.986;4.666;2023-04-26T06:21:44;102060.16;;;17.33;39.59
38616;BME280;24370;51.986;4.666;2023-04-26T06:24:09;102056.09;;;17.15;38.62
38616;BME280;24370;51.986;4.666;2023-04-26T06:26:34;102050.19;;;16.99;39.07
38616;BME280;24370;51.986;4.666;2023-04-26T06:29:00;102058.78;;;17.10;39.60
38616;BME280;24370;51.986;4.666;2023-04-26T06:31:25;102059.56;;;17.17;38.23
38616;BME280;24370;51.986;4.666;2023-04-26T06:33:50;102061.25;;;17.21;37.84
38616;BME280;24370;51.986;4.666;2023-04-26T06:36:16;102065.38;;;16.83;37.14
38616;BME280;24370;51.986;4.666;2023-04-26T06:38:41;102067.19;;;16.81;37.11
38616;BME280;24370;51.986;4.666;2023-04-26T06:41:06;102060.84;;;16.92;37.96
38616;BME280;24370;51.986;4.666;2023-04-26T06:43:33;102079.34;;;16.32;34.89
38616;BME280;24370;51.986;4.666;2023-04-26T06:45:58;102064.72;;;16.70;36.14
38616;BME280;24370;51.986;4.666;2023-04-26T06:48:23;102060.75;;;16.42;34.99
38616;BME280;24370;51.986;4.666;2023-04-26T06:50:49;102062.91;;;16.73;33.05
38616;BME280;24370;51.986;4.666;2023-04-26T06:53:14;102050.84;;;17.57;33.19
38616;BME280;24370;51.986;4.666;2023-04-26T06:55:40;102056.63;;;16.81;33.63
38616;BME280;24370;51.986;4.666;2023-04-26T06:58:05;102060.16;;;16.79;35.01
38616;BME280;24370;51.986;4.666;2023-04-26T07:00:31;102061.94;;;16.21;34.61
38616;BME280;24370;51.986;4.666;2023-04-26T07:02:57;102064.53;;;17.32;32.92
38616;BME280;24370;51.986;4.666;2023-04-26T07:05:22;102057.81;;;17.16;33.95
38616;BME280;24370;51.986;4.666;2023-04-26T07:07:48;102064.25;;;16.44;35.57
38616;BME280;24370;51.986;4.666;2023-04-26T07:10:14;102054.69;;;16.92;34.22
38616;BME280;24370;51.986;4.666;2023-04-26T07:12:39;102052.03;;;17.43;33.99
38616;BME280;24370;51.986;4.666;2023-04-26T07:15:05;102050.78;;;18.05;32.78
38616;BME280;24370;51.986;4.666;2023-04-26T07:17:32;102053.78;;;17.87;32.94
38616;BME280;24370;51.986;4.666;2023-04-26T07:19:57;102049.94;;;18.42;32.15
38616;BME280;24370;51.986;4.666;2023-04-26T07:22:22;102052.00;;;18.65;32.42
38616;BME280;24370;51.986;4.666;2023-04-26T07:24:48;102062.91;;;17.72;32.56
38616;BME280;24370;51.986;4.666;2023-04-26T07:27:13;102068.69;;;17.91;32.83
38616;BME280;24370;51.986;4.666;2023-04-26T07:29:39;102057.03;;;18.01;30.68
38616;BME280;24370;51.986;4.666;2023-04-26T07:32:04;102067.97;;;18.25;31.62
38616;BME280;24370;51.986;4.666;2023-04-26T07:34:30;102062.53;;;17.46;32.87
38616;BME280;24370;51.986;4.666;2023-04-26T07:36:56;102067.34;;;16.71;35.05
38616;BME280;24370;51.986;4.666;2023-04-26T07:39:21;102074.63;;;16.54;34.98
38616;BME280;24370;51.986;4.666;2023-04-26T07:41:47;102071.41;;;17.42;33.77
38616;BME280;24370;51.986;4.666;2023-04-26T07:44:12;102090.56;;;15.82;35.92
38616;BME280;24370;51.986;4.666;2023-04-26T07:46:38;102084.56;;;15.66;37.21
38616;BME280;24370;51.986;4.666;2023-04-26T07:49:03;102076.19;;;15.27;37.79
38616;BME280;24370;51.986;4.666;2023-04-26T07:51:29;102088.28;;;15.47;39.32
38616;BME280;24370;51.986;4.666;2023-04-26T07:53:54;102090.25;;;15.26;38.15
38616;BME280;24370;51.986;4.666;2023-04-26T07:56:20;102094.16;;;14.79;39.04
38616;BME280;24370;51.986;4.666;2023-04-26T07:58:45;102086.19;;;14.91;38.70
38616;BME280;24370;51.986;4.666;2023-04-26T08:01:11;102098.34;;;15.06;39.15
38616;BME280;24370;51.986;4.666;2023-04-26T08:03:36;102088.56;;;16.65;37.17
38616;BME280;24370;51.986;4.666;2023-04-26T08:06:02;102073.84;;;17.05;35.94
38616;BME280;24370;51.986;4.666;2023-04-26T08:08:28;102085.34;;;17.51;35.61
38616;BME280;24370;51.986;4.666;2023-04-26T08:10:54;102088.97;;;16.36;36.42
38616;BME280;24370;51.986;4.666;2023-04-26T08:13:22;102090.34;;;15.98;35.83
38616;BME280;24370;51.986;4.666;2023-04-26T08:15:47;102093.56;;;17.35;35.53
38616;BME280;24370;51.986;4.666;2023-04-26T08:18:13;102097.09;;;15.46;36.81
38616;BME280;24370;51.986;4.666;2023-04-26T08:20:38;102096.97;;;14.46;39.42
38616;BME280;24370;51.986;4.666;2023-04-26T08:23:04;102098.06;;;14.03;39.66
38616;BME280;24370;51.986;4.666;2023-04-26T08:25:29;102094.63;;;16.09;36.79
38616;BME280;24370;51.986;4.666;2023-04-26T08:27:55;102097.22;;;15.33;36.68
38616;BME280;24370;51.986;4.666;2023-04-26T08:30:20;102103.16;;;15.52;36.48
38616;BME280;24370;51.986;4.666;2023-04-26T08:32:46;102101.28;;;15.64;36.35
38616;BME280;24370;51.986;4.666;2023-04-26T08:35:12;102096.75;;;17.04;34.93
38616;BME280;24370;51.986;4.666;2023-04-26T08:37:37;102096.69;;;15.84;35.60
38616;BME280;24370;51.986;4.666;2023-04-26T08:40:07;102088.63;;;16.59;34.80
38616;BME280;24370;51.986;4.666;2023-04-26T08:42:41;102081.41;;;16.70;34.84
38616;BME280;24370;51.986;4.666;2023-04-26T08:45:09;102095.91;;;16.44;34.43
38616;BME280;24370;51.986;4.666;2023-04-26T08:47:42;102069.50;;;17.02;33.44
38616;BME280;24370;51.986;4.666;2023-04-26T08:50:13;102069.13;;;17.69;32.79
38616;BME280;24370;51.986;4.666;2023-04-26T08:52:39;102078.25;;;17.53;33.15
38616;BME280;24370;51.986;4.666;2023-04-26T08:55:06;102072.78;;;17.62;33.37
38616;BME280;24370;51.986;4.666;2023-04-26T08:57:33;102071.47;;;17.39;32.25
38616;BME280;24370;51.986;4.666;2023-04-26T09:00:01;102078.41;;;18.31;31.45
38616;BME280;24370;51.986;4.666;2023-04-26T09:02:29;102078.22;;;17.06;32.22
38616;BME280;24370;51.986;4.666;2023-04-26T09:04:55;102077.50;;;17.93;31.67
38616;BME280;24370;51.986;4.666;2023-04-26T09:07:41;102075.78;;;17.89;32.37
38616;BME280;24370;51.986;4.666;2023-04-26T09:10:08;102084.34;;;18.41;32.14
38616;BME280;24370;51.986;4.666;2023-04-26T09:12:34;102092.22;;;18.45;31.33
38616;BME280;24370;51.986;4.666;2023-04-26T09:14:59;102087.28;;;16.91;32.21
38616;BME280;24370;51.986;4.666;2023-04-26T09:17:38;102091.59;;;18.33;30.99
38616;BME280;24370;51.986;4.666;2023-04-26T09:20:27;102088.44;;;18.17;32.17
38616;BME280;24370;51.986;4.666;2023-04-26T09:23:02;102087.59;;;19.26;30.51
38616;BME280;24370;51.986;4.666;2023-04-26T09:25:29;102090.47;;;17.60;32.62
38616;BME280;24370;51.986;4.666;2023-04-26T09:27:55;102091.78;;;18.25;31.83
38616;BME280;24370;51.986;4.666;2023-04-26T09:30:21;102093.00;;;17.18;32.17
38616;BME280;24370;51.986;4.666;2023-04-26T09:33:00;102086.88;;;17.64;31.65
38616;BME280;24370;51.986;4.666;2023-04-26T09:35:35;102088.97;;;17.46;32.15
38616;BME280;24370;51.986;4.666;2023-04-26T09:43:07;102086.25;;;17.95;31.57
38616;BME280;24370;51.986;4.666;2023-04-26T09:45:44;102081.72;;;18.78;32.16
38616;BME280;24370;51.986;4.666;2023-04-26T09:48:24;102083.84;;;17.83;31.94
38616;BME280;24370;51.986;4.666;2023-04-26T09:50:55;102080.72;;;18.07;30.94
38616;BME280;24370;51.986;4.666;2023-04-26T09:56:04;102087.84;;;17.58;31.52
38616;BME280;24370;51.986;4.666;2023-04-26T09:58:31;102084.19;;;17.19;31.73
38616;BME280;24370;51.986;4.666;2023-04-26T10:00:57;102097.13;;;15.39;36.39
38616;BME280;24370;51.986;4.666;2023-04-26T10:03:24;102096.03;;;15.64;37.21
38616;BME280;24370;51.986;4.666;2023-04-26T10:05:49;102092.84;;;15.31;37.34
38616;BME280;24370;51.986;4.666;2023-04-26T10:08:14;102092.44;;;15.69;36.74
38616;BME280;24370;51.986;4.666;2023-04-26T10:10:41;102095.38;;;15.41;37.32
38616;BME280;24370;51.986;4.666;2023-04-26T10:13:07;102109.03;;;15.77;36.83
38616;BME280;24370;51.986;4.666;2023-04-26T10:15:34;102105.63;;;14.70;37.95
38616;BME280;24370;51.986;4.666;2023-04-26T10:17:59;102094.09;;;14.88;37.15
38616;BME280;24370;51.986;4.666;2023-04-26T10:20:27;102097.66;;;16.44;34.44
38616;BME280;24370;51.986;4.666;2023-04-26T10:22:55;102097.81;;;16.33;33.23
38616;BME280;24370;51.986;4.666;2023-04-26T10:25:37;102085.25;;;16.51;34.55
38616;BME280;24370;51.986;4.666;2023-04-26T10:28:03;102087.03;;;17.55;31.32
38616;BME280;24370;51.986;4.666;2023-04-26T10:30:29;102089.91;;;17.42;31.47
38616;BME280;24370;51.986;4.666;2023-04-26T10:35:21;102082.41;;;18.49;30.54
38616;BME280;24370;51.986;4.666;2023-04-26T10:45:43;102075.63;;;18.37;30.91
38616;BME280;24370;51.986;4.666;2023-04-26T10:48:13;102071.25;;;19.74;29.76
38616;BME280;24370;51.986;4.666;2023-04-26T10:58:48;102070.19;;;19.17;27.88
38616;BME280;24370;51.986;4.666;2023-04-26T11:01:17;102058.56;;;19.54;27.65
38616;BME280;24370;51.986;4.666;2023-04-26T11:06:22;102044.66;;;21.41;26.12
38616;BME280;24370;51.986;4.666;2023-04-26T11:08:49;102043.31;;;21.78;25.26
38616;BME280;24370;51.986;4.666;2023-04-26T11:11:16;102042.44;;;21.29;24.63
38616;BME280;24370;51.986;4.666;2023-04-26T11:13:44;102040.19;;;21.67;24.54
38616;BME280;24370;51.986;4.666;2023-04-26T11:16:15;102036.31;;;21.01;25.60
38616;BME280;24370;51.986;4.666;2023-04-26T11:18:44;102040.34;;;20.60;24.32
38616;BME280;24370;51.986;4.666;2023-04-26T11:21:11;102040.63;;;18.62;25.84
38616;BME280;24370;51.986;4.666;2023-04-26T11:23:39;102035.53;;;21.96;23.56
38616;BME280;24370;51.986;4.666;2023-04-26T11:26:06;102030.13;;;21.75;23.97
38616;BME280;24370;51.986;4.666;2023-04-26T11:28:33;102032.78;;;22.21;23.62
38616;BME280;24370;51.986;4.666;2023-04-26T11:30:59;102033.22;;;19.44;23.91
38616;BME280;24370;51.986;4.666;2023-04-26T11:33:24;102024.34;;;21.88;22.49
38616;BME280;24370;51.986;4.666;2023-04-26T11:35:51;102020.34;;;20.76;24.82
38616;BME280;24370;51.986;4.666;2023-04-26T11:38:20;102017.16;;;21.66;24.08
38616;BME280;24370;51.986;4.666;2023-04-26T11:40:52;102019.38;;;21.04;24.07
38616;BME280;24370;51.986;4.666;2023-04-26T11:43:19;102015.94;;;20.48;24.98
38616;BME280;24370;51.986;4.666;2023-04-26T11:45:44;102037.00;;;18.66;26.27
38616;BME280;24370;51.986;4.666;2023-04-26T11:48:11;102019.91;;;20.35;25.28
38616;BME280;24370;51.986;4.666;2023-04-26T11:50:38;102036.41;;;20.16;26.13
38616;BME280;24370;51.986;4.666;2023-04-26T11:53:06;102011.78;;;20.68;23.97
38616;BME280;24370;51.986;4.666;2023-04-26T11:55:32;102023.34;;;20.65;25.15
38616;BME280;24370;51.986;4.666;2023-04-26T11:57:58;102036.63;;;18.81;27.46
38616;BME280;24370;51.986;4.666;2023-04-26T12:00:24;102032.16;;;18.47;28.69
38616;BME280;24370;51.986;4.666;2023-04-26T12:02:50;102034.34;;;18.30;27.74
38616;BME280;24370;51.986;4.666;2023-04-26T12:05:24;102046.50;;;18.75;26.95
38616;BME280;24370;51.986;4.666;2023-04-26T12:07:52;102038.91;;;19.30;26.95
38616;BME280;24370;51.986;4.666;2023-04-26T12:10:19;102035.69;;;19.50;27.30
38616;BME280;24370;51.986;4.666;2023-04-26T12:12:49;102044.03;;;19.36;26.44
38616;BME280;24370;51.986;4.666;2023-04-26T12:15:16;102029.34;;;20.44;26.11
38616;BME280;24370;51.986;4.666;2023-04-26T12:17:55;102025.34;;;20.86;25.29
38616;BME280;24370;51.986;4.666;2023-04-26T12:20:32;102041.13;;;20.07;27.44
38616;BME280;24370;51.986;4.666;2023-04-26T12:22:58;102032.88;;;21.96;24.62
38616;BME280;24370;51.986;4.666;2023-04-26T12:25:23;102019.16;;;23.14;22.18
38616;BME280;24370;51.986;4.666;2023-04-26T12:27:49;102023.28;;;21.92;23.35
38616;BME280;24370;51.986;4.666;2023-04-26T12:30:14;102029.13;;;21.29;23.90
38616;BME280;24370;51.986;4.666;2023-04-26T12:32:40;102029.22;;;21.76;22.82
38616;BME280;24370;51.986;4.666;2023-04-26T12:35:06;102015.59;;;22.73;22.78
38616;BME280;24370;51.986;4.666;2023-04-26T12:37:31;102028.97;;;21.08;23.67
38616;BME280;24370;51.986;4.666;2023-04-26T12:39:56;102032.09;;;21.70;24.85
38616;BME280;24370;51.986;4.666;2023-04-26T12:42:22;102035.78;;;19.78;26.29
38616;BME280;24370;51.986;4.666;2023-04-26T12:44:47;102031.59;;;19.38;27.66
38616;BME280;24370;51.986;4.666;2023-04-26T12:47:12;102037.53;;;19.15;28.43
38616;BME280;24370;51.986;4.666;2023-04-26T12:49:38;102038.44;;;20.08;27.61
38616;BME280;24370;51.986;4.666;2023-04-26T12:52:04;102022.22;;;20.99;25.85
38616;BME280;24370;51.986;4.666;2023-04-26T12:54:29;102022.97;;;21.03;25.82
38616;BME280;24370;51.986;4.666;2023-04-26T12:56:54;102020.03;;;20.86;25.94
38616;BME280;24370;51.986;4.666;2023-04-26T12:59:20;102024.81;;;22.43;24.72
38616;BME280;24370;51.986;4.666;2023-04-26T13:01:45;102021.66;;;20.90;25.40
38616;BME280;24370;51.986;4.666;2023-04-26T13:04:11;102036.38;;;19.25;27.84
38616;BME280;24370;51.986;4.666;2023-04-26T13:06:37;102039.16;;;19.83;27.26
38616;BME280;24370;51.986;4.666;2023-04-26T13:09:02;102028.91;;;19.40;26.48
38616;BME280;24370;51.986;4.666;2023-04-26T13:11:28;102036.59;;;19.18;26.67
38616;BME280;24370;51.986;4.666;2023-04-26T13:13:53;102030.69;;;19.39;25.98
38616;BME280;24370;51.986;4.666;2023-04-26T13:16:19;102039.16;;;19.52;26.72